sensor_id;sensor_type;location;lat;lon;timestamp;pressure;altitude;pressure_sealevel;temperature;humidity
76586;BME280;65251;51.022;13.736;2023-02-28T00:00:13;100673.00;;;1.55;67.72
76586;BME280;65251;51.022;13.736;2023-02-28T00:00:44;100677.53;;;1.53;67.47
76586;BME280;65251;51.022;13.736;2023-02-28T00:01:14;100677.66;;;1.51;67.47
76586;BME280;65251;51.022;13.736;2023-02-28T00:01:46;100675.03;;;1.51;67.55
76586;BME280;65251;51.022;13.736;2023-02-28T00:02:17;100675.13;;;1.50;67.88
76586;BME280;65251;51.022;13.736;2023-02-28T00:02:48;100670.84;;;1.49;67.73
76586;BME280;65251;51.022;13.736;2023-02-28T00:03:19;100673.47;;;1.49;67.84
76586;BME280;65251;51.022;13.736;2023-02-28T00:03:51;100670.94;;;1.47;67.40
76586;BME280;65251;51.022;13.736;2023-02-28T00:04:21;100677.25;;;1.45;66.92
76586;BME280;65251;51.022;13.736;2023-02-28T00:04:53;100667.69;;;1.44;67.06
76586;BME280;65251;51.022;13.736;2023-02-28T00:05:31;100671.38;;;1.41;67.22
76586;BME280;65251;51.022;13.736;2023-02-28T00:06:03;100672.22;;;1.42;67.33
76586;BME280;65251;51.022;13.736;2023-02-28T00:06:34;100669.59;;;1.42;67.17
76586;BME280;65251;51.022;13.736;2023-02-28T00:07:05;100674.72;;;1.43;67.35
76586;BME280;65251;51.022;13.736;2023-02-28T00:07:36;100671.88;;;1.46;67.57
76586;BME280;65251;51.022;13.736;2023-02-28T00:08:09;100676.41;;;1.44;66.89
76586;BME280;65251;51.022;13.736;2023-02-28T00:08:40;100666.03;;;1.43;66.74
76586;BME280;65251;51.022;13.736;2023-02-28T00:09:12;100672.94;;;1.44;66.67
76586;BME280;65251;51.022;13.736;2023-02-28T00:09:43;100667.06;;;1.40;67.12
76586;BME280;65251;51.022;13.736;2023-02-28T00:10:18;100673.16;;;1.41;67.11
76586;BME280;65251;51.022;13.736;2023-02-28T00:10:51;100670.53;;;1.41;66.81
76586;BME280;65251;51.022;13.736;2023-02-28T00:11:21;100667.91;;;1.41;67.21
76586;BME280;65251;51.022;13.736;2023-02-28T00:11:52;100675.09;;;1.38;67.45
76586;BME280;65251;51.022;13.736;2023-02-28T00:12:24;100671.63;;;1.38;67.49
76586;BME280;65251;51.022;13.736;2023-02-28T00:12:59;100675.31;;;1.35;67.93
76586;BME280;65251;51.022;13.736;2023-02-28T00:13:31;100673.22;;;1.28;68.69
76586;BME280;65251;51.022;13.736;2023-02-28T00:14:03;100670.16;;;1.34;68.83
76586;BME280;65251;51.022;13.736;2023-02-28T00:14:33;100670.16;;;1.34;68.40
76586;BME280;65251;51.022;13.736;2023-02-28T00:15:06;100667.44;;;1.35;68.49
76586;BME280;65251;51.022;13.736;2023-02-28T00:15:39;100668.91;;;1.40;68.27
76586;BME280;65251;51.022;13.736;2023-02-28T00:16:12;100666.28;;;1.40;67.91
76586;BME280;65251;51.022;13.736;2023-02-28T00:16:45;100679.03;;;1.44;67.55
76586;BME280;65251;51.022;13.736;2023-02-28T00:17:16;100672.00;;;1.45;67.07
76586;BME280;65251;51.022;13.736;2023-02-28T00:17:51;100668.31;;;1.47;66.93
76586;BME280;65251;51.022;13.736;2023-02-28T00:18:23;100664.75;;;1.48;66.96
76586;BME280;65251;51.022;13.736;2023-02-28T00:18:54;100664.75;;;1.48;66.67
76586;BME280;65251;51.022;13.736;2023-02-28T00:19:24;100664.75;;;1.48;66.64
76586;BME280;65251;51.022;13.736;2023-02-28T00:19:56;100671.66;;;1.49;66.93
76586;BME280;65251;51.022;13.736;2023-02-28T00:20:27;100662.84;;;1.50;67.01
76586;BME280;65251;51.022;13.736;2023-02-28T00:20:58;100674.28;;;1.49;66.68
76586;BME280;65251;51.022;13.736;2023-02-28T00:21:30;100667.16;;;1.51;66.35
76586;BME280;65251;51.022;13.736;2023-02-28T00:22:01;100673.34;;;1.50;66.62
76586;BME280;65251;51.022;13.736;2023-02-28T00:22:31;100666.53;;;1.48;66.48
76586;BME280;65251;51.022;13.736;2023-02-28T00:23:03;100670.84;;;1.49;66.68
76586;BME280;65251;51.022;13.736;2023-02-28T00:23:34;100664.53;;;1.51;66.67
76586;BME280;65251;51.022;13.736;2023-02-28T00:24:05;100669.88;;;1.50;66.41
76586;BME280;65251;51.022;13.736;2023-02-28T00:24:37;100667.47;;;1.47;66.91
76586;BME280;65251;51.022;13.736;2023-02-28T00:25:10;100668.75;;;1.41;67.00
76586;BME280;65251;51.022;13.736;2023-02-28T00:25:41;100665.97;;;1.31;67.31
76586;BME280;65251;51.022;13.736;2023-02-28T00:26:13;100673.53;;;1.36;67.58
76586;BME280;65251;51.022;13.736;2023-02-28T00:26:44;100676.47;;;1.31;67.73
76586;BME280;65251;51.022;13.736;2023-02-28T00:27:14;100668.28;;;1.36;67.64
76586;BME280;65251;51.022;13.736;2023-02-28T00:27:47;100667.44;;;1.35;67.60
76586;BME280;65251;51.022;13.736;2023-02-28T00:28:18;100668.06;;;1.39;67.54
76586;BME280;65251;51.022;13.736;2023-02-28T00:28:51;100668.06;;;1.39;67.16
76586;BME280;65251;51.022;13.736;2023-02-28T00:29:23;100666.13;;;1.41;66.83
76586;BME280;65251;51.022;13.736;2023-02-28T00:29:53;100665.91;;;1.44;66.94
76586;BME280;65251;51.022;13.736;2023-02-28T00:30:24;100665.06;;;1.44;66.52
76586;BME280;65251;51.022;13.736;2023-02-28T00:30:56;100666.03;;;1.43;66.51
76586;BME280;65251;51.022;13.736;2023-02-28T00:31:30;100670.31;;;1.44;66.78
76586;BME280;65251;51.022;13.736;2023-02-28T00:32:01;100660.28;;;1.37;66.86
76586;BME280;65251;51.022;13.736;2023-02-28T00:32:32;100664.81;;;1.35;66.54
76586;BME280;65251;51.022;13.736;2023-02-28T00:33:04;100657.88;;;1.34;66.88
76586;BME280;65251;51.022;13.736;2023-02-28T00:33:35;100659.56;;;1.35;66.96
76586;BME280;65251;51.022;13.736;2023-02-28T00:34:06;100660.28;;;1.37;67.23
76586;BME280;65251;51.022;13.736;2023-02-28T00:34:37;100663.88;;;1.36;67.57
76586;BME280;65251;51.022;13.736;2023-02-28T00:35:10;100657.03;;;1.34;67.37
76586;BME280;65251;51.022;13.736;2023-02-28T00:35:41;100658.63;;;1.36;67.31
76586;BME280;65251;51.022;13.736;2023-02-28T00:36:12;100666.38;;;1.38;66.99
76586;BME280;65251;51.022;13.736;2023-02-28T00:36:43;100658.63;;;1.36;67.10
76586;BME280;65251;51.022;13.736;2023-02-28T00:37:16;100657.66;;;1.37;67.37
76586;BME280;65251;51.022;13.736;2023-02-28T00:37:47;100658.72;;;1.35;67.28
76586;BME280;65251;51.022;13.736;2023-02-28T00:38:20;100660.63;;;1.33;67.41
76586;BME280;65251;51.022;13.736;2023-02-28T00:38:50;100661.44;;;1.33;67.56
76586;BME280;65251;51.022;13.736;2023-02-28T00:39:22;100666.72;;;1.33;67.17
76586;BME280;65251;51.022;13.736;2023-02-28T00:39:53;100665.88;;;1.33;67.28
76586;BME280;65251;51.022;13.736;2023-02-28T00:40:24;100670.28;;;1.32;67.01
76586;BME280;65251;51.022;13.736;2023-02-28T00:40:55;100667.66;;;1.32;67.12
76586;BME280;65251;51.022;13.736;2023-02-28T00:41:26;100663.47;;;1.30;67.22
76586;BME280;65251;51.022;13.736;2023-02-28T00:41:58;100665.97;;;1.31;67.53
76586;BME280;65251;51.022;13.736;2023-02-28T00:42:28;100662.50;;;1.31;67.76
76586;BME280;65251;51.022;13.736;2023-02-28T00:42:59;100668.59;;;1.31;67.69
76586;BME280;65251;51.022;13.736;2023-02-28T00:43:32;100663.34;;;1.31;67.51
76586;BME280;65251;51.022;13.736;2023-02-28T00:44:03;100659.66;;;1.34;67.65
76586;BME280;65251;51.022;13.736;2023-02-28T00:44:34;100664.19;;;1.32;67.31
76586;BME280;65251;51.022;13.736;2023-02-28T00:45:07;100662.50;;;1.31;67.59
76586;BME280;65251;51.022;13.736;2023-02-28T00:45:38;100661.66;;;1.30;67.43
76586;BME280;65251;51.022;13.736;2023-02-28T00:46:11;100661.78;;;1.29;67.33
76586;BME280;65251;51.022;13.736;2023-02-28T00:46:42;100663.69;;;1.27;67.41
76586;BME280;65251;51.022;13.736;2023-02-28T00:47:13;100661.16;;;1.25;66.73
76586;BME280;65251;51.022;13.736;2023-02-28T00:47:44;100663.16;;;1.22;67.25
76586;BME280;65251;51.022;13.736;2023-02-28T00:48:16;100665.91;;;1.20;67.45
76586;BME280;65251;51.022;13.736;2023-02-28T00:48:47;100664.94;;;1.21;67.47
76586;BME280;65251;51.022;13.736;2023-02-28T00:49:19;100670.56;;;1.17;67.36
76586;BME280;65251;51.022;13.736;2023-02-28T00:49:50;100660.91;;;1.17;67.86
76586;BME280;65251;51.022;13.736;2023-02-28T00:50:21;100659.31;;;1.15;67.95
76586;BME280;65251;51.022;13.736;2023-02-28T00:50:53;100665.31;;;1.17;68.17
76586;BME280;65251;51.022;13.736;2023-02-28T00:51:24;100665.09;;;1.20;68.11
76586;BME280;65251;51.022;13.736;2023-02-28T00:51:55;100662.69;;;1.17;67.72
76586;BME280;65251;51.022;13.736;2023-02-28T00:52:27;100664.06;;;1.10;67.52
76586;BME280;65251;51.022;13.736;2023-02-28T00:52:58;100659.53;;;1.12;68.07
76586;BME280;65251;51.022;13.736;2023-02-28T00:53:29;100665.72;;;1.11;67.81
76586;BME280;65251;51.022;13.736;2023-02-28T00:54:03;100656.06;;;1.11;67.95
76586;BME280;65251;51.022;13.736;2023-02-28T00:54:33;100663.94;;;1.11;68.01
76586;BME280;65251;51.022;13.736;2023-02-28T00:55:04;100659.31;;;1.15;67.94
76586;BME280;65251;51.022;13.736;2023-02-28T00:55:36;100654.28;;;1.12;68.09
76586;BME280;65251;51.022;13.736;2023-02-28T00:56:07;100665.19;;;1.18;67.93
76586;BME280;65251;51.022;13.736;2023-02-28T00:56:38;100659.22;;;1.16;67.98
76586;BME280;65251;51.022;13.736;2023-02-28T00:57:09;100661.72;;;1.18;68.09
76586;BME280;65251;51.022;13.736;2023-02-28T00:57:40;100656.38;;;1.19;67.83
76586;BME280;65251;51.022;13.736;2023-02-28T00:58:11;100659.09;;;1.18;68.09
76586;BME280;65251;51.022;13.736;2023-02-28T00:58:42;100668.53;;;1.20;68.07
76586;BME280;65251;51.022;13.736;2023-02-28T00:59:14;100658.16;;;1.19;67.96
76586;BME280;65251;51.022;13.736;2023-02-28T00:59:44;100665.78;;;1.22;67.92
76586;BME280;65251;51.022;13.736;2023-02-28T01:00:17;100662.56;;;1.18;68.05
76586;BME280;65251;51.022;13.736;2023-02-28T01:00:48;100660.66;;;1.20;68.05
76586;BME280;65251;51.022;13.736;2023-02-28T01:01:20;100654.81;;;1.17;68.13
76586;BME280;65251;51.022;13.736;2023-02-28T01:01:51;100663.53;;;1.17;68.37
76586;BME280;65251;51.022;13.736;2023-02-28T01:02:23;100659.09;;;1.18;68.50
76586;BME280;65251;51.022;13.736;2023-02-28T01:02:53;100656.47;;;1.18;68.36
76586;BME280;65251;51.022;13.736;2023-02-28T01:03:24;100644.75;;;1.11;68.70
76586;BME280;65251;51.022;13.736;2023-02-28T01:03:55;100661.72;;;1.18;68.53
76586;BME280;65251;51.022;13.736;2023-02-28T01:04:27;100653.84;;;1.18;68.61
76586;BME280;65251;51.022;13.736;2023-02-28T01:04:57;100653.84;;;1.18;68.52
76586;BME280;65251;51.022;13.736;2023-02-28T01:05:28;100660.66;;;1.20;68.71
76586;BME280;65251;51.022;13.736;2023-02-28T01:06:00;100654.69;;;1.18;68.44
76586;BME280;65251;51.022;13.736;2023-02-28T01:06:31;100665.09;;;1.20;68.80
76586;BME280;65251;51.022;13.736;2023-02-28T01:07:02;100659.69;;;1.21;68.55
76586;BME280;65251;51.022;13.736;2023-02-28T01:07:32;100652.78;;;1.20;68.77
76586;BME280;65251;51.022;13.736;2023-02-28T01:08:04;100655.28;;;1.22;68.87
76586;BME280;65251;51.022;13.736;2023-02-28T01:08:35;100662.09;;;1.24;68.70
76586;BME280;65251;51.022;13.736;2023-02-28T01:09:07;100663.06;;;1.23;68.72
76586;BME280;65251;51.022;13.736;2023-02-28T01:09:39;100662.31;;;1.21;68.73
76586;BME280;65251;51.022;13.736;2023-02-28T01:10:10;100653.59;;;1.21;68.45
76586;BME280;65251;51.022;13.736;2023-02-28T01:10:41;100662.09;;;1.24;68.65
76586;BME280;65251;51.022;13.736;2023-02-28T01:11:15;100661.38;;;1.22;68.44
76586;BME280;65251;51.022;13.736;2023-02-28T01:11:47;100652.56;;;1.23;68.53
76586;BME280;65251;51.022;13.736;2023-02-28T01:12:18;100666.41;;;1.25;68.55
76586;BME280;65251;51.022;13.736;2023-02-28T01:12:49;100663.06;;;1.23;68.47
76586;BME280;65251;51.022;13.736;2023-02-28T01:13:20;100667.56;;;1.21;68.41
76586;BME280;65251;51.022;13.736;2023-02-28T01:13:53;100660.78;;;1.19;68.80
76586;BME280;65251;51.022;13.736;2023-02-28T01:14:25;100663.28;;;1.20;68.72
76586;BME280;65251;51.022;13.736;2023-02-28T01:14:55;100664.13;;;1.21;68.76
76586;BME280;65251;51.022;13.736;2023-02-28T01:15:26;100667.72;;;1.20;68.56
76586;BME280;65251;51.022;13.736;2023-02-28T01:15:57;100664.94;;;1.21;68.46
76586;BME280;65251;51.022;13.736;2023-02-28T01:16:30;100657.91;;;1.22;68.55
76586;BME280;65251;51.022;13.736;2023-02-28T01:17:01;100659.38;;;1.26;68.15
76586;BME280;65251;51.022;13.736;2023-02-28T01:17:32;100662.84;;;1.26;68.37
76586;BME280;65251;51.022;13.736;2023-02-28T01:18:04;100660.09;;;1.28;68.07
76586;BME280;65251;51.022;13.736;2023-02-28T01:18:35;100658.53;;;1.25;68.11
76586;BME280;65251;51.022;13.736;2023-02-28T01:19:07;100666.19;;;1.28;68.06
76586;BME280;65251;51.022;13.736;2023-02-28T01:19:39;100660.09;;;1.28;68.07
76586;BME280;65251;51.022;13.736;2023-02-28T01:20:10;100659.38;;;1.26;67.97
76586;BME280;65251;51.022;13.736;2023-02-28T01:20:41;100657.69;;;1.25;68.02
76586;BME280;65251;51.022;13.736;2023-02-28T01:21:15;100645.63;;;1.22;68.00
76586;BME280;65251;51.022;13.736;2023-02-28T01:21:47;100656.03;;;1.24;67.89
76586;BME280;65251;51.022;13.736;2023-02-28T01:22:18;100657.81;;;1.23;67.90
76586;BME280;65251;51.022;13.736;2023-02-28T01:22:49;100656.13;;;1.22;67.90
76586;BME280;65251;51.022;13.736;2023-02-28T01:23:21;100658.53;;;1.25;68.06
76586;BME280;65251;51.022;13.736;2023-02-28T01:23:56;100653.50;;;1.22;67.94
76586;BME280;65251;51.022;13.736;2023-02-28T01:24:28;100656.03;;;1.24;68.08
76586;BME280;65251;51.022;13.736;2023-02-28T01:24:59;100652.66;;;1.22;68.19
76586;BME280;65251;51.022;13.736;2023-02-28T01:25:30;100659.00;;;1.19;67.46
76586;BME280;65251;51.022;13.736;2023-02-28T01:26:04;100652.06;;;1.18;67.70
76586;BME280;65251;51.022;13.736;2023-02-28T01:26:35;100658.16;;;1.19;67.45
76586;BME280;65251;51.022;13.736;2023-02-28T01:27:06;100653.03;;;1.17;67.48
76586;BME280;65251;51.022;13.736;2023-02-28T01:27:37;100659.09;;;1.18;67.67
76586;BME280;65251;51.022;13.736;2023-02-28T01:28:09;100651.22;;;1.18;67.32
76586;BME280;65251;51.022;13.736;2023-02-28T01:28:42;100656.47;;;1.18;67.42
76586;BME280;65251;51.022;13.736;2023-02-28T01:29:13;100651.34;;;1.16;67.59
76586;BME280;65251;51.022;13.736;2023-02-28T01:29:43;100654.19;;;1.13;67.58
76586;BME280;65251;51.022;13.736;2023-02-28T01:30:15;100650.81;;;1.11;67.43
76586;BME280;65251;51.022;13.736;2023-02-28T01:30:49;100654.72;;;1.06;67.51
76586;BME280;65251;51.022;13.736;2023-02-28T01:31:22;100655.66;;;1.04;67.84
76586;BME280;65251;51.022;13.736;2023-02-28T01:31:55;100653.16;;;1.03;68.07
76586;BME280;65251;51.022;13.736;2023-02-28T01:32:27;100652.66;;;0.98;68.25
76586;BME280;65251;51.022;13.736;2023-02-28T01:32:58;100651.00;;;0.97;68.34
76586;BME280;65251;51.022;13.736;2023-02-28T01:33:30;100646.56;;;0.97;68.44
76586;BME280;65251;51.022;13.736;2023-02-28T01:34:00;100649.19;;;0.97;68.45
76586;BME280;65251;51.022;13.736;2023-02-28T01:34:31;100646.47;;;0.99;68.25
76586;BME280;65251;51.022;13.736;2023-02-28T01:35:03;100645.00;;;0.95;68.71
76586;BME280;65251;51.022;13.736;2023-02-28T01:35:35;100648.16;;;0.87;68.78
76586;BME280;65251;51.022;13.736;2023-02-28T01:36:09;100652.38;;;0.90;69.00
76586;BME280;65251;51.022;13.736;2023-02-28T01:36:40;100650.69;;;0.89;69.16
76586;BME280;65251;51.022;13.736;2023-02-28T01:37:12;100655.81;;;0.90;69.01
76586;BME280;65251;51.022;13.736;2023-02-28T01:37:43;100654.16;;;0.89;68.84
76586;BME280;65251;51.022;13.736;2023-02-28T01:38:14;100646.28;;;0.89;68.88
76586;BME280;65251;51.022;13.736;2023-02-28T01:38:46;100656.78;;;0.89;68.97
76586;BME280;65251;51.022;13.736;2023-02-28T01:39:17;100650.69;;;0.89;69.16
76586;BME280;65251;51.022;13.736;2023-02-28T01:39:48;100647.44;;;0.85;69.04
76586;BME280;65251;51.022;13.736;2023-02-28T01:40:19;100646.22;;;0.78;69.26
76586;BME280;65251;51.022;13.736;2023-02-28T01:40:51;100649.53;;;0.80;69.48
76586;BME280;65251;51.022;13.736;2023-02-28T01:41:24;100640.34;;;0.75;69.82
76586;BME280;65251;51.022;13.736;2023-02-28T01:41:55;100656.47;;;0.81;69.41
76586;BME280;65251;51.022;13.736;2023-02-28T01:42:27;100645.28;;;0.79;69.35
76586;BME280;65251;51.022;13.736;2023-02-28T01:42:58;100651.34;;;0.80;69.39
76586;BME280;65251;51.022;13.736;2023-02-28T01:43:31;100654.78;;;0.80;69.32
76586;BME280;65251;51.022;13.736;2023-02-28T01:44:05;100651.22;;;0.81;69.34
76586;BME280;65251;51.022;13.736;2023-02-28T01:45:08;100648.59;;;0.81;69.17
76586;BME280;65251;51.022;13.736;2023-02-28T01:45:47;100650.16;;;0.84;69.09
76586;BME280;65251;51.022;13.736;2023-02-28T01:46:19;100647.53;;;0.84;69.37
76586;BME280;65251;51.022;13.736;2023-02-28T01:46:50;100650.16;;;0.84;68.94
76586;BME280;65251;51.022;13.736;2023-02-28T01:47:25;100641.25;;;0.86;69.09
76586;BME280;65251;51.022;13.736;2023-02-28T01:48:02;100642.91;;;0.87;69.12
76586;BME280;65251;51.022;13.736;2023-02-28T01:48:39;100645.44;;;0.89;68.86
76586;BME280;65251;51.022;13.736;2023-02-28T01:49:15;100653.19;;;0.90;68.61
76586;BME280;65251;51.022;13.736;2023-02-28T01:49:48;100640.09;;;0.90;68.73
76586;BME280;65251;51.022;13.736;2023-02-28T01:50:23;100642.50;;;0.93;68.73
76586;BME280;65251;51.022;13.736;2023-02-28T01:51:01;100648.69;;;0.92;68.60
76586;BME280;65251;51.022;13.736;2023-02-28T01:51:40;100650.69;;;0.89;68.77
76586;BME280;65251;51.022;13.736;2023-02-28T01:52:16;100640.19;;;0.89;68.69
76586;BME280;65251;51.022;13.736;2023-02-28T01:52:50;100652.47;;;0.88;68.70
76586;BME280;65251;51.022;13.736;2023-02-28T01:53:29;100646.50;;;0.86;68.87
76586;BME280;65251;51.022;13.736;2023-02-28T01:54:07;100645.84;;;0.83;68.71
76586;BME280;65251;51.022;13.736;2023-02-28T01:54:50;100644.91;;;0.84;68.73
76586;BME280;65251;51.022;13.736;2023-02-28T01:55:25;100643.97;;;0.85;69.22
76586;BME280;65251;51.022;13.736;2023-02-28T01:55:59;100649.31;;;0.83;68.89
76586;BME280;65251;51.022;13.736;2023-02-28T01:56:34;100650.38;;;0.81;69.26
76586;BME280;65251;51.022;13.736;2023-02-28T01:57:13;100652.06;;;0.82;69.25
76586;BME280;65251;51.022;13.736;2023-02-28T01:57:50;100651.34;;;0.80;69.48
76586;BME280;65251;51.022;13.736;2023-02-28T01:58:24;100646.22;;;0.78;69.56
76586;BME280;65251;51.022;13.736;2023-02-28T01:58:56;100641.06;;;0.77;68.83
76586;BME280;65251;51.022;13.736;2023-02-28T01:59:33;100643.69;;;0.77;68.94
76586;BME280;65251;51.022;13.736;2023-02-28T02:00:09;100648.22;;;0.75;68.78
76586;BME280;65251;51.022;13.736;2023-02-28T02:00:43;100645.59;;;0.75;68.94
76586;BME280;65251;51.022;13.736;2023-02-28T02:01:14;100643.91;;;0.74;69.19
76586;BME280;65251;51.022;13.736;2023-02-28T02:01:53;100640.34;;;0.75;69.23
76586;BME280;65251;51.022;13.736;2023-02-28T02:02:28;100636.88;;;0.74;69.16
76586;BME280;65251;51.022;13.736;2023-02-28T02:03:05;100640.44;;;0.73;69.42
76586;BME280;65251;51.022;13.736;2023-02-28T02:03:37;100643.06;;;0.73;69.36
76586;BME280;65251;51.022;13.736;2023-02-28T02:04:09;100635.31;;;0.72;69.46
76586;BME280;65251;51.022;13.736;2023-02-28T02:04:49;100635.19;;;0.73;69.21
76586;BME280;65251;51.022;13.736;2023-02-28T02:05:23;100640.56;;;0.72;69.30
76586;BME280;65251;51.022;13.736;2023-02-28T02:05:55;100639.81;;;0.69;69.37
76586;BME280;65251;51.022;13.736;2023-02-28T02:06:30;100645.06;;;0.69;69.44
76586;BME280;65251;51.022;13.736;2023-02-28T02:07:04;100643.50;;;0.67;69.58
76586;BME280;65251;51.022;13.736;2023-02-28T02:07:37;100638.25;;;0.67;69.58
76586;BME280;65251;51.022;13.736;2023-02-28T02:08:12;100639.28;;;0.64;69.98
76586;BME280;65251;51.022;13.736;2023-02-28T02:08:43;100640.44;;;0.60;70.05
76586;BME280;65251;51.022;13.736;2023-02-28T02:09:14;100635.09;;;0.62;70.44
76586;BME280;65251;51.022;13.736;2023-02-28T02:09:46;100642.13;;;0.61;70.26
76586;BME280;65251;51.022;13.736;2023-02-28T02:10:20;100638.81;;;0.59;70.32
76586;BME280;65251;51.022;13.736;2023-02-28T02:10:54;100638.81;;;0.59;70.01
76586;BME280;65251;51.022;13.736;2023-02-28T02:11:27;100636.19;;;0.59;69.87
76586;BME280;65251;51.022;13.736;2023-02-28T02:12:09;100637.13;;;0.58;70.04
76586;BME280;65251;51.022;13.736;2023-02-28T02:13:08;100640.69;;;0.57;69.47
76586;BME280;65251;51.022;13.736;2023-02-28T02:14:11;100637.44;;;0.54;69.59
76586;BME280;65251;51.022;13.736;2023-02-28T02:14:58;100640.16;;;0.52;69.82
76586;BME280;65251;51.022;13.736;2023-02-28T02:15:38;100638.38;;;0.53;69.62
76586;BME280;65251;51.022;13.736;2023-02-28T02:16:28;100639.44;;;0.50;69.84
76586;BME280;65251;51.022;13.736;2023-02-28T02:17:11;100645.63;;;0.49;70.08
76586;BME280;65251;51.022;13.736;2023-02-28T02:17:52;100643.09;;;0.48;70.04
76586;BME280;65251;51.022;13.736;2023-02-28T02:18:43;100644.03;;;0.47;70.02
76586;BME280;65251;51.022;13.736;2023-02-28T02:19:42;100640.38;;;0.49;70.09
76586;BME280;65251;51.022;13.736;2023-02-28T02:24:03;100646.13;;;0.42;70.50
76586;BME280;65251;51.022;13.736;2023-02-28T02:25:03;100640.06;;;0.41;70.75
76586;BME280;65251;51.022;13.736;2023-02-28T02:25:46;100633.97;;;0.41;70.93
76586;BME280;65251;51.022;13.736;2023-02-28T02:26:49;100632.19;;;0.41;70.89
76586;BME280;65251;51.022;13.736;2023-02-28T02:27:29;100632.81;;;0.45;70.99
76586;BME280;65251;51.022;13.736;2023-02-28T02:28:34;100629.25;;;0.46;70.95
76586;BME280;65251;51.022;13.736;2023-02-28T02:30:58;100632.81;;;0.57;70.54
76586;BME280;65251;51.022;13.736;2023-02-28T02:32:06;100632.72;;;0.59;70.65
76586;BME280;65251;51.022;13.736;2023-02-28T02:35:13;100630.81;;;0.61;70.42
76586;BME280;65251;51.022;13.736;2023-02-28T02:35:52;100629.84;;;0.62;70.65
76586;BME280;65251;51.022;13.736;2023-02-28T02:36:29;100623.66;;;0.63;70.58
76586;BME280;65251;51.022;13.736;2023-02-28T02:37:11;100625.44;;;0.62;70.68
76586;BME280;65251;51.022;13.736;2023-02-28T02:37:51;100630.59;;;0.64;70.48
76586;BME280;65251;51.022;13.736;2023-02-28T02:38:35;100628.69;;;0.66;70.52
76586;BME280;65251;51.022;13.736;2023-02-28T02:39:16;100631.94;;;0.69;70.19
76586;BME280;65251;51.022;13.736;2023-02-28T02:39:56;100635.41;;;0.70;70.16
76586;BME280;65251;51.022;13.736;2023-02-28T02:40:36;100637.81;;;0.73;70.08
76586;BME280;65251;51.022;13.736;2023-02-28T02:41:13;100627.34;;;0.73;69.88
76586;BME280;65251;51.022;13.736;2023-02-28T02:41:51;100624.50;;;0.76;69.63
76586;BME280;65251;51.022;13.736;2023-02-28T02:42:29;100630.59;;;0.77;69.59
76586;BME280;65251;51.022;13.736;2023-02-28T02:43:07;100633.94;;;0.79;69.64
76586;BME280;65251;51.022;13.736;2023-02-28T02:43:46;100628.06;;;0.75;69.42
76586;BME280;65251;51.022;13.736;2023-02-28T02:44:24;100631.63;;;0.74;69.55
76586;BME280;65251;51.022;13.736;2023-02-28T02:45:02;100629.44;;;0.68;70.08
76586;BME280;65251;51.022;13.736;2023-02-28T02:45:40;100635.31;;;0.72;69.66
76586;BME280;65251;51.022;13.736;2023-02-28T02:46:19;100637.09;;;0.71;69.55
76586;BME280;65251;51.022;13.736;2023-02-28T02:46:54;100636.88;;;0.74;69.39
76586;BME280;65251;51.022;13.736;2023-02-28T02:47:31;100634.34;;;0.73;69.24
76586;BME280;65251;51.022;13.736;2023-02-28T02:48:12;100632.69;;;0.72;69.26
76586;BME280;65251;51.022;13.736;2023-02-28T02:48:46;100636.03;;;0.74;69.52
76586;BME280;65251;51.022;13.736;2023-02-28T02:49:24;100640.97;;;0.78;69.40
76586;BME280;65251;51.022;13.736;2023-02-28T02:50:01;100640.03;;;0.79;69.36
76586;BME280;65251;51.022;13.736;2023-02-28T02:50:38;100632.00;;;0.81;69.31
76586;BME280;65251;51.022;13.736;2023-02-28T02:51:15;100630.97;;;0.83;69.10
76586;BME280;65251;51.022;13.736;2023-02-28T02:51:48;100627.50;;;0.83;69.25
76586;BME280;65251;51.022;13.736;2023-02-28T02:52:25;100630.97;;;0.83;69.25
76586;BME280;65251;51.022;13.736;2023-02-28T02:53:04;100641.44;;;0.83;69.24
76586;BME280;65251;51.022;13.736;2023-02-28T02:53:42;100635.38;;;0.83;69.28
76586;BME280;65251;51.022;13.736;2023-02-28T02:54:21;100641.44;;;0.83;69.36
76586;BME280;65251;51.022;13.736;2023-02-28T02:54:57;100638.34;;;0.78;69.05
76586;BME280;65251;51.022;13.736;2023-02-28T02:55:31;100640.88;;;0.80;69.56
76586;BME280;65251;51.022;13.736;2023-02-28T02:56:06;100635.72;;;0.78;69.64
76586;BME280;65251;51.022;13.736;2023-02-28T02:56:41;100638.25;;;0.80;69.40
76586;BME280;65251;51.022;13.736;2023-02-28T02:57:21;100636.41;;;0.80;69.42
76586;BME280;65251;51.022;13.736;2023-02-28T02:57:57;100634.78;;;0.79;68.94
76586;BME280;65251;51.022;13.736;2023-02-28T02:58:35;100630.47;;;0.78;68.97
76586;BME280;65251;51.022;13.736;2023-02-28T02:59:16;100639.03;;;0.80;69.36
76586;BME280;65251;51.022;13.736;2023-02-28T02:59:54;100635.63;;;0.80;69.43
76586;BME280;65251;51.022;13.736;2023-02-28T03:00:32;100636.78;;;0.76;69.50
76586;BME280;65251;51.022;13.736;2023-02-28T03:01:06;100635.94;;;0.75;69.41
76586;BME280;65251;51.022;13.736;2023-02-28T03:01:40;100638.66;;;0.74;69.51
76586;BME280;65251;51.022;13.736;2023-02-28T03:02:16;100638.56;;;0.75;69.55
76586;BME280;65251;51.022;13.736;2023-02-28T03:02:50;100639.50;;;0.74;69.42
76586;BME280;65251;51.022;13.736;2023-02-28T03:03:23;100640.34;;;0.75;69.41
76586;BME280;65251;51.022;13.736;2023-02-28T03:04:04;100637.63;;;0.76;69.45
76586;BME280;65251;51.022;13.736;2023-02-28T03:04:42;100640.97;;;0.78;69.64
76586;BME280;65251;51.022;13.736;2023-02-28T03:05:19;100644.28;;;0.80;69.49
76586;BME280;65251;51.022;13.736;2023-02-28T03:05:52;100643.34;;;0.81;69.55
76586;BME280;65251;51.022;13.736;2023-02-28T03:06:23;100638.09;;;0.81;69.40
76586;BME280;65251;51.022;13.736;2023-02-28T03:06:54;100645.97;;;0.81;69.43